createdAt,value
2023-03-23T15:58:45.343Z,17.60
2023-03-23T15:59:48.782Z,17.50
2023-03-23T16:00:53.689Z,17.50
2023-03-23T16:01:57.381Z,17.50
2023-03-23T16:03:03.061Z,17.50
2023-03-23T16:04:08.434Z,17.40
2023-03-23T16:05:14.076Z,17.50
2023-03-23T16:06:23.387Z,17.40
2023-03-23T16:07:28.669Z,17.40
2023-03-23T16:08:32.039Z,17.40
2023-03-23T16:09:34.117Z,17.40
2023-03-23T16:10:37.196Z,17.40
2023-03-23T16:11:39.312Z,17.40
2023-03-23T16:12:42.352Z,17.40
2023-03-23T16:13:44.972Z,17.40
2023-03-23T16:14:49.368Z,17.30
2023-03-23T16:15:51.720Z,17.30
2023-03-23T16:16:54.886Z,17.30
2023-03-23T16:17:57.113Z,17.30
2023-03-23T16:19:00.130Z,17.30
2023-03-23T16:20:03.567Z,17.30
2023-03-23T16:21:07.592Z,17.30
2023-03-23T16:22:10.342Z,17.30
2023-03-23T16:23:13.391Z,17.30
2023-03-23T16:24:15.812Z,17.30
2023-03-23T16:25:19.897Z,17.20
2023-03-23T16:26:21.934Z,17.20
2023-03-23T16:27:24.996Z,17.30
2023-03-23T16:28:27.290Z,17.30
2023-03-23T16:29:54.246Z,17.30
2023-03-23T16:30:54.824Z,17.20
2023-03-23T16:31:57.255Z,17.20
2023-03-23T16:33:01.193Z,17.20
2023-03-23T16:34:03.781Z,17.20
2023-03-23T16:35:07.357Z,17.20
2023-03-23T16:36:12.985Z,17.20
2023-03-23T16:37:16.735Z,17.10
2023-03-23T16:38:20.188Z,17.20
2023-03-23T16:39:23.312Z,17.20
2023-03-23T16:40:27.204Z,17.20
2023-03-23T16:41:29.351Z,17.20
2023-03-23T16:42:32.339Z,17.20
2023-03-23T16:43:34.771Z,17.20
2023-03-23T16:44:37.829Z,17.20
2023-03-23T16:45:43.759Z,17.20
2023-03-23T16:46:48.365Z,17.20
2023-03-23T16:47:51.203Z,17.20
2023-03-23T16:48:54.373Z,17.20
2023-03-23T16:49:56.572Z,17.20
2023-03-23T16:50:59.680Z,17.20
2023-03-23T16:52:01.879Z,17.20
2023-03-23T16:53:06.672Z,17.30
2023-03-23T16:54:08.710Z,17.30
2023-03-23T16:55:13.254Z,17.30
2023-03-23T16:56:16.656Z,17.30
2023-03-23T16:57:20.605Z,17.30
2023-03-23T16:58:24.049Z,17.30
2023-03-23T16:59:28.084Z,17.30
2023-03-23T17:00:31.114Z,17.30
2023-03-23T17:01:33.413Z,17.30
2023-03-23T17:02:38.490Z,17.30
2023-03-23T17:03:43.866Z,17.30
2023-03-23T17:04:46.659Z,17.30
2023-03-23T17:05:51.043Z,17.30
2023-03-23T17:06:53.202Z,17.30
2023-03-23T17:07:57.161Z,17.30
2023-03-23T17:08:59.566Z,17.30
2023-03-23T17:10:02.625Z,17.30
2023-03-23T17:11:05.114Z,17.30
2023-03-23T17:12:08.583Z,17.30
2023-03-23T17:13:11.880Z,17.30
2023-03-23T17:14:15.139Z,17.30
2023-03-23T17:15:18.201Z,17.30
2023-03-23T17:16:20.769Z,17.30
2023-03-23T17:17:24.967Z,17.30
2023-03-23T17:18:29.637Z,17.30
2023-03-23T17:19:32.730Z,17.30
2023-03-23T17:20:35.787Z,17.20
2023-03-23T17:21:38.948Z,17.20
2023-03-23T17:22:42.010Z,17.20
2023-03-23T17:23:44.062Z,17.20
2023-03-23T17:24:47.667Z,17.20
2023-03-23T17:25:50.380Z,17.20
2023-03-23T17:26:53.444Z,17.20
2023-03-23T17:27:55.482Z,17.20
2023-03-23T17:28:58.604Z,17.20
2023-03-23T17:30:01.918Z,17.20
2023-03-23T17:31:06.218Z,17.20
2023-03-23T17:32:09.495Z,17.20
2023-03-23T17:33:14.064Z,17.20
2023-03-23T17:34:18.813Z,17.30
2023-03-23T17:35:22.845Z,17.30
2023-03-23T17:36:25.577Z,17.30
2023-03-23T17:37:28.659Z,17.20
2023-03-23T17:38:31.761Z,17.20
2023-03-23T17:39:43.235Z,17.20
2023-03-23T17:40:46.092Z,17.20
2023-03-23T17:41:49.303Z,17.20
2023-03-23T17:42:51.648Z,17.20
2023-03-23T17:43:54.816Z,17.20
2023-03-23T17:44:57.225Z,17.20
2023-03-23T17:46:00.668Z,17.20
2023-03-23T17:47:03.165Z,17.20
2023-03-23T17:48:07.811Z,17.20
2023-03-23T17:49:10.355Z,17.20
2023-03-23T17:50:15.487Z,17.20
2023-03-23T17:51:17.736Z,17.10
2023-03-23T17:52:20.787Z,17.10
2023-03-23T17:53:22.911Z,17.10
2023-03-23T17:54:29.077Z,17.10
2023-03-23T17:55:32.714Z,17.20
2023-03-23T17:56:35.754Z,17.10
2023-03-23T17:57:38.928Z,17.10
2023-03-23T17:58:41.034Z,17.10
2023-03-23T17:59:44.090Z,17.10
2023-03-23T18:00:46.226Z,17.10
2023-03-23T18:01:49.812Z,17.10
2023-03-23T18:02:53.103Z,17.10
2023-03-23T18:03:55.630Z,17.10
2023-03-23T18:05:00.138Z,17.10
2023-03-23T18:06:06.074Z,17.10
2023-03-23T18:07:09.370Z,17.00
2023-03-23T18:08:11.504Z,17.00
2023-03-23T18:09:14.748Z,17.00
2023-03-23T18:10:17.961Z,17.00
2023-03-23T18:11:20.392Z,17.00
2023-03-23T18:12:23.412Z,17.00
2023-03-23T18:13:26.730Z,17.00
2023-03-23T18:14:30.102Z,16.90
2023-03-23T18:15:33.563Z,16.90
2023-03-23T18:16:36.653Z,16.90
2023-03-23T18:17:39.765Z,16.90
2023-03-23T18:18:41.906Z,16.90
2023-03-23T18:19:46.586Z,16.80
2023-03-23T18:20:53.622Z,16.80
2023-03-23T18:21:57.968Z,16.80
2023-03-23T18:23:00.086Z,16.80
2023-03-23T18:24:03.684Z,16.70
2023-03-23T18:25:07.573Z,16.70
2023-03-23T18:26:11.924Z,16.70
2023-03-23T18:27:14.972Z,16.60
2023-03-23T18:28:17.473Z,16.60
2023-03-23T18:29:20.588Z,16.60
2023-03-23T18:30:22.869Z,16.60
2023-03-23T18:31:26.490Z,16.60
2023-03-23T18:32:28.939Z,16.50
2023-03-23T18:33:31.990Z,16.50
2023-03-23T18:34:34.150Z,16.50
2023-03-23T18:35:37.215Z,16.50
2023-03-23T18:36:39.325Z,16.50
2023-03-23T18:37:44.117Z,16.50
2023-03-23T18:38:46.586Z,16.50
2023-03-23T18:39:49.777Z,16.50
2023-03-23T18:40:52.041Z,16.50
2023-03-23T18:41:55.291Z,16.40
2023-03-23T18:42:57.594Z,16.40
2023-03-23T18:44:01.496Z,16.40
2023-03-23T18:45:04.873Z,16.40
2023-03-23T18:46:08.007Z,16.40
2023-03-23T18:47:11.381Z,16.40
2023-03-23T18:48:13.479Z,16.30
2023-03-23T18:49:16.698Z,16.30
2023-03-23T18:50:18.885Z,16.30
2023-03-23T18:51:22.619Z,16.30
2023-03-23T18:52:26.591Z,16.30
2023-03-23T18:53:31.186Z,16.20
2023-03-23T18:54:35.023Z,16.20
2023-03-23T18:55:37.070Z,16.20
2023-03-23T18:56:40.433Z,16.20
2023-03-23T18:57:43.817Z,16.20
2023-03-23T18:58:46.147Z,16.20
2023-03-23T18:59:49.696Z,16.10
2023-03-23T19:00:57.008Z,16.10
2023-03-23T19:02:00.348Z,16.10
2023-03-23T19:03:02.517Z,16.10
2023-03-23T19:04:06.710Z,16.10
2023-03-23T19:05:11.466Z,16.10
2023-03-23T19:06:16.432Z,16.00
2023-03-23T19:07:20.518Z,16.00
2023-03-23T19:08:22.538Z,16.00
2023-03-23T19:09:27.457Z,16.00
2023-03-23T19:10:30.655Z,15.90
2023-03-23T19:11:33.792Z,15.90
2023-03-23T19:12:37.290Z,15.90
2023-03-23T19:13:44.501Z,15.80
2023-03-23T19:14:53.802Z,15.80
2023-03-23T19:15:56.106Z,15.70
2023-03-23T19:16:59.117Z,15.70
2023-03-23T19:18:02.298Z,15.70
2023-03-23T19:19:06.408Z,15.70
2023-03-23T19:20:14.653Z,15.70
2023-03-23T19:21:25.582Z,15.60
2023-03-23T19:22:31.737Z,15.60
2023-03-23T19:23:34.283Z,15.60
2023-03-23T19:24:38.830Z,15.60
2023-03-23T19:25:41.193Z,15.50
2023-03-23T19:26:46.687Z,15.50
2023-03-23T19:28:38.451Z,15.50
2023-03-23T19:30:21.071Z,15.50
2023-03-23T19:31:25.616Z,15.50
2023-03-23T19:32:27.863Z,15.50
2023-03-23T19:33:31.079Z,15.60
2023-03-23T19:34:33.703Z,15.50
2023-03-23T19:35:37.433Z,15.60
2023-03-23T19:36:41.066Z,15.50
2023-03-23T19:37:43.691Z,15.50
2023-03-23T19:38:46.790Z,15.50
2023-03-23T19:39:51.496Z,15.60
2023-03-23T19:40:57.614Z,15.50
2023-03-23T19:42:01.131Z,15.50
2023-03-23T19:44:08.324Z,15.40
2023-03-23T19:45:10.858Z,15.50
2023-03-23T19:46:14.729Z,15.50
2023-03-23T19:47:18.253Z,15.50
2023-03-23T19:48:21.345Z,15.50
2023-03-23T19:49:25.083Z,15.50
2023-03-23T19:50:28.777Z,15.50
2023-03-23T19:51:31.139Z,15.40
2023-03-23T19:52:34.209Z,15.40
2023-03-23T19:53:39.301Z,15.40
2023-03-23T19:54:42.215Z,15.40
2023-03-23T19:55:47.980Z,15.40
2023-03-23T19:56:50.517Z,15.50
2023-03-23T19:57:54.054Z,15.50
2023-03-23T19:58:57.111Z,15.50
2023-03-23T19:59:59.322Z,15.50
2023-03-23T20:01:02.563Z,15.50
2023-03-23T20:02:05.997Z,15.50
2023-03-23T20:03:09.339Z,15.40
2023-03-23T20:04:11.966Z,15.40
2023-03-23T20:05:15.406Z,15.40
2023-03-23T20:06:18.313Z,15.50
2023-03-23T20:07:21.521Z,15.40
2023-03-23T20:08:23.818Z,15.50
2023-03-23T20:09:27.031Z,15.40
2023-03-23T20:10:30.492Z,15.50
2023-03-23T20:11:34.510Z,15.50
2023-03-23T20:12:38.246Z,15.50
2023-03-23T20:13:41.407Z,15.50
2023-03-23T20:14:45.349Z,15.50
2023-03-23T20:15:52.975Z,15.50
2023-03-23T20:16:55.082Z,15.50
2023-03-23T20:17:58.690Z,15.50
2023-03-23T20:19:00.884Z,15.50
2023-03-23T20:20:10.172Z,15.50
2023-03-23T20:21:15.486Z,15.50
2023-03-23T20:22:17.625Z,15.50
2023-03-23T20:23:20.898Z,15.50
2023-03-23T20:24:23.075Z,15.50
2023-03-23T20:25:26.193Z,15.50
2023-03-23T20:26:31.199Z,15.50
2023-03-23T20:27:37.873Z,15.50
2023-03-23T20:28:42.259Z,15.50
2023-03-23T20:29:45.534Z,15.40
2023-03-23T20:30:48.285Z,15.50
2023-03-23T20:32:12.312Z,15.50
2023-03-23T20:33:16.900Z,15.50
2023-03-23T20:34:30.714Z,15.50
2023-03-23T20:35:33.887Z,15.50
2023-03-23T20:36:40.332Z,15.40
2023-03-23T20:37:44.529Z,15.40
2023-03-23T20:38:47.593Z,15.40
2023-03-23T20:39:51.295Z,15.40
2023-03-23T20:40:56.848Z,15.50
2023-03-23T20:42:03.351Z,15.40
2023-03-23T20:43:08.125Z,15.40
2023-03-23T20:44:15.516Z,15.40
2023-03-23T20:45:18.544Z,15.40
2023-03-23T20:46:23.441Z,15.40
2023-03-23T20:47:28.093Z,15.40
2023-03-23T20:48:34.765Z,15.40
2023-03-23T20:49:40.349Z,15.40
2023-03-23T20:50:42.469Z,15.40
2023-03-23T20:51:46.480Z,15.40
2023-03-23T20:52:49.561Z,15.40
2023-03-23T20:53:52.219Z,15.40
2023-03-23T20:54:56.583Z,15.40
2023-03-23T20:56:01.690Z,15.40
2023-03-23T20:57:05.021Z,15.40
2023-03-23T20:58:08.618Z,15.40
2023-03-23T20:59:12.956Z,15.40
2023-03-23T21:00:17.931Z,15.40
2023-03-23T21:01:21.577Z,15.30
2023-03-23T21:02:26.153Z,15.30
2023-03-23T21:03:30.494Z,15.30
2023-03-23T21:04:33.540Z,15.30
2023-03-23T21:05:37.063Z,15.30
2023-03-23T21:06:39.077Z,15.30
2023-03-23T21:07:42.742Z,15.30
2023-03-23T21:08:44.785Z,15.30
2023-03-23T21:09:47.917Z,15.30
2023-03-23T21:10:50.666Z,15.30
2023-03-23T21:11:54.139Z,15.30
2023-03-23T21:12:57.233Z,15.30
2023-03-23T21:14:01.882Z,15.20
2023-03-23T21:15:06.326Z,15.30
2023-03-23T21:16:08.863Z,15.20
2023-03-23T21:17:12.038Z,15.30
2023-03-23T21:18:14.403Z,15.30
2023-03-23T21:19:19.304Z,15.30
2023-03-23T21:20:23.795Z,15.30
2023-03-23T21:21:27.201Z,15.30
2023-03-23T21:22:30.406Z,15.30
2023-03-23T21:23:33.969Z,15.30
2023-03-23T21:24:38.507Z,15.30
2023-03-23T21:25:42.053Z,15.30
2023-03-23T21:26:45.334Z,15.30
2023-03-23T21:27:48.531Z,15.30
2023-03-23T21:28:54.078Z,15.30
2023-03-23T21:30:00.197Z,15.30
2023-03-23T21:31:04.513Z,15.30
2023-03-23T21:32:08.774Z,15.30
2023-03-23T21:33:11.675Z,15.30
2023-03-23T21:34:14.826Z,15.30
2023-03-23T21:35:17.054Z,15.20
2023-03-23T21:36:20.331Z,15.20
2023-03-23T21:37:23.329Z,15.20
2023-03-23T21:38:27.009Z,15.20
2023-03-23T21:39:30.354Z,15.20
2023-03-23T21:40:32.406Z,15.30
2023-03-23T21:41:41.978Z,15.30
2023-03-23T21:42:46.126Z,15.30
2023-03-23T21:43:50.082Z,15.30
2023-03-23T21:44:53.675Z,15.30
2023-03-23T21:46:02.758Z,15.20
2023-03-23T21:47:04.921Z,15.20
2023-03-23T21:48:09.189Z,15.30
2023-03-23T21:49:14.169Z,15.30
2023-03-23T21:50:17.997Z,15.20
2023-03-23T21:51:23.288Z,15.20
2023-03-23T21:52:27.439Z,15.30
2023-03-23T21:53:30.949Z,15.20
2023-03-23T21:54:34.257Z,15.30
2023-03-23T21:55:36.364Z,15.20
2023-03-23T21:56:39.777Z,15.20
2023-03-23T21:57:42.343Z,15.30
2023-03-23T21:58:45.535Z,15.30
2023-03-23T21:59:48.664Z,15.20
2023-03-23T22:00:54.114Z,15.30
2023-03-23T22:01:59.055Z,15.30
2023-03-23T22:03:02.687Z,15.30
2023-03-23T22:04:06.429Z,15.30
2023-03-23T22:05:08.772Z,15.30
2023-03-23T22:06:15.702Z,15.30
2023-03-23T22:07:18.067Z,15.30
2023-03-23T22:08:21.221Z,15.30
2023-03-23T22:09:23.409Z,15.30
2023-03-23T22:10:26.484Z,15.40
2023-03-23T22:11:31.123Z,15.40
2023-03-23T22:12:34.150Z,15.40
2023-03-23T22:13:37.960Z,15.40
2023-03-23T22:14:41.161Z,15.50
2023-03-23T22:15:43.307Z,15.50
2023-03-23T22:16:46.775Z,15.50
2023-03-23T22:17:50.414Z,15.50
2023-03-23T22:18:55.335Z,15.50
2023-03-23T22:19:57.602Z,15.50
2023-03-23T22:21:01.025Z,15.50
2023-03-23T22:22:04.109Z,15.60
2023-03-23T22:23:07.316Z,15.60
2023-03-23T22:24:10.391Z,15.60
2023-03-23T22:25:13.435Z,15.70
2023-03-23T22:26:17.298Z,15.70
2023-03-23T22:27:19.306Z,15.70
2023-03-23T22:28:22.986Z,15.70
2023-03-23T22:29:25.163Z,15.80
2023-03-23T22:30:29.698Z,15.80
2023-03-23T22:31:34.845Z,15.80
2023-03-23T22:32:37.426Z,15.80
2023-03-23T22:33:41.838Z,15.80
2023-03-23T22:34:44.033Z,15.80
2023-03-23T22:35:48.022Z,15.70
2023-03-23T22:36:50.920Z,15.70
2023-03-23T22:37:54.396Z,15.60
2023-03-23T22:38:56.662Z,15.60
2023-03-23T22:39:59.908Z,15.60
2023-03-23T22:41:02.546Z,15.50
2023-03-23T22:42:05.845Z,15.50
2023-03-23T22:43:08.818Z,15.40
2023-03-23T22:44:13.896Z,15.40
2023-03-23T22:45:16.322Z,15.30
2023-03-23T22:46:19.394Z,15.30
2023-03-23T22:47:21.393Z,15.20
2023-03-23T22:48:27.122Z,15.20
2023-03-23T22:49:30.506Z,15.20
2023-03-23T22:50:33.503Z,15.10
2023-03-23T22:51:36.879Z,15.10
2023-03-23T22:52:38.968Z,15.10
2023-03-23T22:53:42.238Z,15.10
2023-03-23T22:54:44.252Z,15.00
2023-03-23T22:55:48.736Z,14.90
2023-03-23T22:56:52.056Z,14.90
2023-03-23T22:57:54.263Z,14.80
2023-03-23T22:58:59.930Z,14.70
2023-03-23T23:00:01.946Z,14.70
2023-03-23T23:01:07.617Z,14.60
2023-03-23T23:02:10.772Z,14.60
2023-03-23T23:03:13.189Z,14.60
2023-03-23T23:04:16.256Z,14.50
2023-03-23T23:05:20.067Z,14.50
2023-03-23T23:06:24.846Z,14.40
2023-03-23T23:07:26.901Z,14.40
2023-03-23T23:08:32.902Z,14.40
2023-03-23T23:09:34.999Z,14.40
2023-03-23T23:10:38.247Z,14.40
2023-03-23T23:11:40.347Z,14.40
2023-03-23T23:12:43.433Z,14.40
2023-03-23T23:13:45.725Z,14.40
2023-03-23T23:14:48.728Z,14.40
2023-03-23T23:15:53.950Z,14.50
2023-03-23T23:16:57.015Z,14.50
2023-03-23T23:17:59.913Z,14.50
2023-03-23T23:19:03.212Z,14.60
2023-03-23T23:20:06.963Z,14.60
2023-03-23T23:21:14.379Z,14.60
2023-03-23T23:22:18.839Z,14.60
2023-03-23T23:23:22.670Z,14.60
2023-03-23T23:24:26.516Z,14.60
2023-03-23T23:25:29.875Z,14.60
2023-03-23T23:26:31.882Z,14.60
2023-03-23T23:27:34.943Z,14.70
2023-03-23T23:28:37.052Z,14.70
2023-03-23T23:29:40.575Z,14.60
2023-03-23T23:30:43.517Z,14.60
2023-03-23T23:31:46.851Z,14.60
2023-03-23T23:32:49.624Z,14.60
2023-03-23T23:33:53.079Z,14.60
2023-03-23T23:34:55.130Z,14.50
2023-03-23T23:35:58.492Z,14.50
2023-03-23T23:37:02.183Z,14.50
2023-03-23T23:38:05.585Z,14.50
2023-03-23T23:39:07.756Z,14.40
2023-03-23T23:40:11.230Z,14.40
2023-03-23T23:41:14.182Z,14.40
2023-03-23T23:42:17.395Z,14.40
2023-03-23T23:43:19.572Z,14.50
2023-03-23T23:44:22.799Z,14.50
2023-03-23T23:45:24.956Z,14.50
2023-03-23T23:46:30.600Z,14.60
2023-03-23T23:47:32.910Z,14.60
2023-03-23T23:48:36.170Z,14.70
2023-03-23T23:49:38.531Z,14.70
2023-03-23T23:50:42.338Z,14.80
2023-03-23T23:51:44.755Z,14.90
2023-03-23T23:52:50.051Z,14.90
2023-03-23T23:53:53.554Z,15.00
2023-03-23T23:54:56.120Z,15.10
2023-03-23T23:56:03.455Z,15.20
2023-03-23T23:57:05.976Z,15.30
2023-03-23T23:58:09.018Z,15.40
2023-03-23T23:59:11.105Z,15.50
